Time;durP1;ratioP1;P1;durP2;ratioP2;P2;SDS_P1;SDS_P2;PMS_P1;PMS_P2;Temp;Humidity;BMP_temperature;BMP_pressure;BME280_temperature;BME280_humidity;BME280_pressure;Samples;Min_cycle;Max_cycle;Signal;HPM_P1;HPM_P2
2023/01/12 00:01:40;;;;;;;6.30;1.67;;;7.60;99.90;;;;;;5033163;28;20587;-69
2023/01/12 00:04:06;;;;;;;5.03;2.07;;;7.60;99.90;;;;;;5033999;28;20438;-70
2023/01/12 00:06:33;;;;;;;3.70;1.70;;;7.60;99.90;;;;;;5034306;28;20418;-69
2023/01/12 00:09:01;;;;;;;3.83;1.77;;;7.40;99.90;;;;;;5034260;28;20406;-70
2023/01/12 00:11:27;;;;;;;3.17;1.57;;;7.40;99.90;;;;;;5034385;28;20454;-70
2023/01/12 00:13:53;;;;;;;2.50;1.23;;;7.30;99.90;;;;;;5034166;28;20517;-69
2023/01/12 00:16:33;;;;;;;4.33;1.53;;;7.40;99.90;;;;;;5033564;28;20489;-70
2023/01/12 00:19:11;;;;;;;3.40;1.77;;;7.50;99.90;;;;;;5032635;28;20581;-70
2023/01/12 00:21:59;;;;;;;2.87;1.40;;;7.70;99.90;;;;;;5033731;28;20404;-69
2023/01/12 00:24:36;;;;;;;4.80;1.70;;;7.80;99.90;;;;;;5034137;28;20458;-70
2023/01/12 00:27:13;;;;;;;8.10;2.07;;;7.80;99.90;;;;;;5034210;28;20741;-69
2023/01/12 00:29:39;;;;;;;2.63;1.43;;;7.80;99.90;;;;;;5034160;28;20397;-69
2023/01/12 00:32:06;;;;;;;6.63;1.90;;;7.90;99.90;;;;;;5034551;28;20848;-69
2023/01/12 00:34:32;;;;;;;3.40;1.70;;;7.90;99.90;;;;;;5033264;28;20201;-70
2023/01/12 00:36:59;;;;;;;7.87;1.60;;;7.90;99.90;;;;;;5033750;28;20403;-69
2023/01/12 00:39:25;;;;;;;3.37;1.37;;;7.90;99.90;;;;;;5033940;28;20449;-69
2023/01/12 00:47:19;;;;;;;5.67;1.83;;;8.10;99.90;;;;;;5033948;28;20388;-70
2023/01/12 00:49:46;;;;;;;3.67;2.17;;;8.10;99.90;;;;;;5029960;28;20424;-71
2023/01/12 00:52:17;;;;;;;6.93;1.40;;;8.20;99.90;;;;;;5033647;28;20202;-70
2023/01/12 00:54:43;;;;;;;3.63;2.40;;;8.30;99.90;;;;;;5015713;28;20432;-70
2023/01/12 00:57:10;;;;;;;11.63;2.37;;;8.30;99.90;;;;;;5033939;28;20426;-71
2023/01/12 00:59:36;;;;;;;2.30;1.30;;;8.40;99.90;;;;;;5013931;28;20182;-70
2023/01/12 01:02:03;;;;;;;3.87;1.50;;;8.60;99.90;;;;;;5033579;28;20408;-71
2023/01/12 01:04:28;;;;;;;3.93;1.73;;;8.60;99.90;;;;;;5015769;28;20329;-71
2023/01/12 01:06:54;;;;;;;8.40;2.20;;;8.50;99.90;;;;;;5033230;28;20484;-69
2023/01/12 01:09:20;;;;;;;4.83;1.50;;;8.40;99.90;;;;;;5033378;28;20175;-70
2023/01/12 01:11:45;;;;;;;3.20;1.80;;;8.50;99.90;;;;;;5033289;28;20197;-70
2023/01/12 01:14:11;;;;;;;6.80;2.07;;;8.60;99.90;;;;;;5032584;28;20532;-70
2023/01/12 01:16:37;;;;;;;4.80;1.90;;;8.60;99.90;;;;;;5033368;28;20169;-69
2023/01/12 01:19:04;;;;;;;5.03;2.07;;;8.50;99.90;;;;;;5033446;28;20443;-69
2023/01/12 01:21:31;;;;;;;4.43;1.90;;;8.50;99.90;;;;;;5031441;28;20216;-69
2023/01/12 01:23:57;;;;;;;4.00;1.60;;;8.60;99.90;;;;;;5032966;28;20850;-70
2023/01/12 01:26:23;;;;;;;4.50;2.00;;;8.60;99.90;;;;;;5031194;28;20467;-71
2023/01/12 01:28:49;;;;;;;4.10;1.60;;;8.60;99.90;;;;;;4986941;28;20171;-70
2023/01/12 01:31:18;;;;;;;4.10;1.93;;;8.40;99.90;;;;;;5012736;28;20455;-70
2023/01/12 01:33:44;;;;;;;7.47;2.10;;;8.40;99.90;;;;;;5029495;28;20456;-71
2023/01/12 01:36:11;;;;;;;1.60;1.30;;;8.40;99.90;;;;;;5015269;28;20409;-71
2023/01/12 01:38:36;;;;;;;5.23;1.90;;;8.40;99.90;;;;;;5033174;28;20495;-70
2023/01/12 01:41:03;;;;;;;6.90;2.10;;;8.50;99.90;;;;;;5033433;28;20434;-70
2023/01/12 01:43:48;;;;;;;4.73;1.80;;;8.40;99.90;;;;;;5032781;28;20705;-70
2023/01/12 01:46:19;;;;;;;6.57;1.80;;;8.40;99.90;;;;;;5032868;28;20445;-71
2023/01/12 01:48:45;;;;;;;4.63;2.13;;;8.40;99.90;;;;;;5033084;28;20397;-71
2023/01/12 01:51:14;;;;;;;7.70;2.10;;;8.50;99.90;;;;;;5029301;28;20453;-71
2023/01/12 01:53:43;;;;;;;4.23;1.90;;;8.50;99.90;;;;;;5012975;28;20301;-70
2023/01/12 01:56:15;;;;;;;4.80;1.60;;;8.40;99.90;;;;;;5013341;28;20414;-70
2023/01/12 01:58:47;;;;;;;3.07;1.40;;;8.50;99.90;;;;;;5013304;28;20393;-70
2023/01/12 02:01:13;;;;;;;4.23;1.93;;;8.60;99.90;;;;;;5013580;28;20518;-70
2023/01/12 02:03:40;;;;;;;2.53;1.50;;;8.60;99.90;;;;;;5013767;28;20445;-71
2023/01/12 02:06:07;;;;;;;3.17;1.63;;;8.60;99.90;;;;;;5012819;28;20171;-71
2023/01/12 02:08:45;;;;;;;7.90;2.23;;;8.70;99.90;;;;;;5013269;28;20412;-70
2023/01/12 02:16:53;;;;;;;4.10;1.73;;;8.80;99.90;;;;;;5013202;28;20386;-69
2023/01/12 02:19:43;;;;;;;3.60;1.50;;;8.80;99.90;;;;;;5013109;28;20447;-70
2023/01/12 02:22:36;;;;;;;6.80;1.67;;;8.80;99.90;;;;;;5020452;28;20407;-70
2023/01/12 02:25:39;;;;;;;6.63;2.27;;;8.70;99.90;;;;;;5032705;28;20805;-69
2023/01/12 02:28:30;;;;;;;3.97;2.00;;;8.70;99.90;;;;;;5032504;28;20456;-69
2023/01/12 02:31:37;;;;;;;3.33;1.77;;;8.80;99.90;;;;;;5032361;28;20388;-70
2023/01/12 02:34:09;;;;;;;6.33;1.80;;;8.70;99.90;;;;;;5030164;28;20460;-70
2023/01/12 02:36:55;;;;;;;5.60;1.97;;;8.80;99.90;;;;;;5032613;28;20424;-69
2023/01/12 02:39:24;;;;;;;7.00;1.60;;;8.80;99.90;;;;;;5032857;28;20406;-69
2023/01/12 02:45:01;;;;;;;3.97;1.77;;;8.60;99.90;;;;;;5036394;28;20427;-69
2023/01/12 02:47:42;;;;;;;6.47;2.13;;;8.60;99.90;;;;;;5036125;28;20385;-69
2023/01/12 02:50:12;;;;;;;4.17;1.70;;;8.50;99.90;;;;;;5035678;28;20379;-69
2023/01/12 02:52:43;;;;;;;6.60;2.50;;;8.60;99.90;;;;;;5036201;28;20827;-69
2023/01/12 02:55:10;;;;;;;3.97;1.90;;;8.50;99.90;;;;;;5035748;28;20912;-69
2023/01/12 02:57:36;;;;;;;7.43;2.13;;;8.50;99.90;;;;;;5035632;28;20405;-70
2023/01/12 03:00:04;;;;;;;6.17;1.80;;;8.50;99.90;;;;;;5035887;28;20849;-70
2023/01/12 03:02:30;;;;;;;6.93;1.80;;;8.50;99.90;;;;;;5035479;28;20417;-69
2023/01/12 03:04:56;;;;;;;4.43;2.13;;;8.50;99.90;;;;;;5035085;28;20849;-70
2023/01/12 03:07:31;;;;;;;4.60;1.70;;;8.50;99.90;;;;;;5035508;28;20413;-69
2023/01/12 03:10:26;;;;;;;4.70;1.90;;;8.50;99.90;;;;;;5035188;28;20169;-70
2023/01/12 03:12:53;;;;;;;6.30;2.23;;;8.50;99.90;;;;;;5035614;28;20440;-70
2023/01/12 03:15:20;;;;;;;6.40;2.20;;;8.40;99.90;;;;;;5035227;28;20504;-69
2023/01/12 03:18:02;;;;;;;7.60;1.87;;;8.40;99.90;;;;;;5035247;28;20405;-69
2023/01/12 03:20:35;;;;;;;2.77;1.67;;;8.50;99.90;;;;;;5035302;28;20893;-70
2023/01/12 03:23:11;;;;;;;4.73;1.70;;;8.60;99.90;;;;;;5033674;28;20867;-69
2023/01/12 03:25:39;;;;;;;8.63;2.23;;;8.70;99.90;;;;;;5034927;28;20440;-71
2023/01/12 03:28:06;;;;;;;4.70;2.13;;;8.70;99.90;;;;;;5008395;28;20455;-70
2023/01/12 03:30:39;;;;;;;8.27;2.10;;;8.70;99.90;;;;;;4995982;28;20785;-71
2023/01/12 03:33:06;;;;;;;5.30;1.87;;;8.70;99.90;;;;;;4995829;28;20450;-69
2023/01/12 03:35:39;;;;;;;4.23;1.60;;;8.60;99.90;;;;;;5007644;28;20456;-69
2023/01/12 03:38:13;;;;;;;8.60;1.93;;;8.50;99.90;;;;;;5015097;28;20394;-70
2023/01/12 03:40:45;;;;;;;7.30;2.23;;;8.50;99.90;;;;;;5015346;28;20784;-69
2023/01/12 03:43:40;;;;;;;6.90;1.90;;;8.50;99.90;;;;;;5015075;28;20418;-70
2023/01/12 03:46:13;;;;;;;6.50;1.77;;;8.60;99.90;;;;;;5015254;28;20397;-69
2023/01/12 03:48:50;;;;;;;4.87;2.13;;;8.50;99.90;;;;;;5015238;28;20888;-70
2023/01/12 03:51:22;;;;;;;5.93;1.63;;;8.50;99.90;;;;;;5014090;28;20449;-70
2023/01/12 03:53:50;;;;;;;4.03;2.33;;;8.60;99.90;;;;;;5029463;28;20487;-70
2023/01/12 03:56:18;;;;;;;3.70;1.83;;;8.60;99.90;;;;;;5034808;28;20436;-70
2023/01/12 03:58:44;;;;;;;6.40;2.30;;;8.50;99.90;;;;;;5034737;28;20412;-70
2023/01/12 04:01:10;;;;;;;8.30;2.53;;;8.50;99.90;;;;;;5017099;28;20435;-71
2023/01/12 04:03:36;;;;;;;4.93;1.40;;;8.60;99.90;;;;;;5016831;28;21004;-71
2023/01/12 04:06:01;;;;;;;8.13;1.93;;;8.60;99.90;;;;;;5034471;28;20496;-71
2023/01/12 04:08:27;;;;;;;6.60;1.90;;;8.70;99.90;;;;;;5034175;28;20167;-70
2023/01/12 04:10:53;;;;;;;4.67;1.57;;;8.70;99.90;;;;;;5034543;28;20175;-70
2023/01/12 04:13:18;;;;;;;5.97;2.13;;;8.60;99.90;;;;;;5035921;28;20170;-71
2023/01/12 04:15:46;;;;;;;7.77;2.40;;;8.70;99.90;;;;;;5034246;28;20190;-70
2023/01/12 04:18:11;;;;;;;3.97;1.60;;;8.70;99.90;;;;;;5034152;28;20171;-70
2023/01/12 04:20:37;;;;;;;5.07;1.77;;;8.80;99.90;;;;;;4999986;28;20563;-69
2023/01/12 04:23:05;;;;;;;5.50;2.40;;;8.90;99.90;;;;;;5031964;28;20174;-70
2023/01/12 04:25:31;;;;;;;11.00;2.63;;;8.90;99.90;;;;;;5034417;28;20961;-69
2023/01/12 04:28:01;;;;;;;3.57;1.80;;;8.80;99.90;;;;;;5034156;28;20410;-70
2023/01/12 04:30:29;;;;;;;4.37;1.70;;;8.80;99.90;;;;;;5034243;28;20166;-69
2023/01/12 04:32:55;;;;;;;8.47;2.20;;;8.80;99.90;;;;;;5034211;28;20457;-70
2023/01/12 04:35:23;;;;;;;7.57;2.10;;;8.80;99.90;;;;;;5069856;22;20486;-70
2023/01/12 04:37:49;;;;;;;3.80;1.80;;;8.90;99.90;;;;;;5073368;28;20524;-69
2023/01/12 04:40:16;;;;;;;7.10;2.10;;;8.90;99.90;;;;;;5074787;28;20402;-69
2023/01/12 04:43:07;;;;;;;7.93;2.50;;;8.90;99.90;;;;;;5055089;28;20417;-70
2023/01/12 04:45:38;;;;;;;8.30;2.63;;;8.90;99.90;;;;;;5074116;28;20445;-70
2023/01/12 04:48:10;;;;;;;7.90;2.27;;;8.90;99.90;;;;;;5073930;28;20427;-69
2023/01/12 04:50:37;;;;;;;7.97;2.43;;;8.90;99.90;;;;;;5072916;28;20515;-69
2023/01/12 04:53:04;;;;;;;8.10;2.37;;;8.90;99.90;;;;;;5073669;28;20445;-69
2023/01/12 04:55:30;;;;;;;4.13;2.20;;;8.90;99.90;;;;;;5055617;28;20446;-69
2023/01/12 04:57:56;;;;;;;7.47;2.20;;;8.80;99.90;;;;;;5073248;28;20890;-69
2023/01/12 05:00:22;;;;;;;8.27;2.40;;;8.80;99.90;;;;;;5074005;28;20165;-69
2023/01/12 05:02:49;;;;;;;6.03;2.23;;;8.80;99.90;;;;;;5073358;28;20636;-69
2023/01/12 05:05:14;;;;;;;4.50;1.80;;;8.70;99.90;;;;;;5073409;28;20424;-69
2023/01/12 05:10:21;;;;;;;3.67;1.90;;;8.80;99.90;;;;;;5073644;28;20414;-69
2023/01/12 05:10:26;;;;;;;7.70;2.07;;;8.80;99.90;;;;;;5073273;28;20157;-70
2023/01/12 05:12:51;;;;;;;8.47;1.90;;;8.90;99.90;;;;;;5073103;28;20518;-70
2023/01/12 05:15:17;;;;;;;7.40;2.03;;;8.80;99.90;;;;;;5073453;28;20702;-69
2023/01/12 05:17:42;;;;;;;5.20;2.17;;;8.80;99.90;;;;;;5073556;28;20708;-70
2023/01/12 05:20:08;;;;;;;6.17;2.40;;;8.80;99.90;;;;;;5073499;28;20246;-69
2023/01/12 05:22:34;;;;;;;6.97;2.07;;;8.80;99.90;;;;;;5071969;28;20167;-69
2023/01/12 05:24:59;;;;;;;8.53;2.93;;;9.00;99.90;;;;;;5073078;28;20462;-69
2023/01/12 05:27:25;;;;;;;6.53;1.73;;;9.00;99.90;;;;;;5073348;28;20176;-69
2023/01/12 05:29:51;;;;;;;6.80;2.87;;;9.10;99.90;;;;;;5069997;28;20163;-70
2023/01/12 05:32:17;;;;;;;8.27;1.70;;;9.10;99.90;;;;;;5070875;28;20195;-70
2023/01/12 05:34:42;;;;;;;3.23;1.97;;;9.00;99.90;;;;;;5055019;28;20423;-70
2023/01/12 05:37:08;;;;;;;6.03;2.47;;;9.00;99.90;;;;;;5072256;28;20179;-69
2023/01/12 05:39:34;;;;;;;8.97;2.83;;;9.00;99.90;;;;;;5055390;28;20165;-69
2023/01/12 05:44:43;;;;;;;3.20;1.60;;;9.10;99.90;;;;;;5073618;28;20168;-70
2023/01/12 05:47:09;;;;;;;6.93;2.43;;;9.10;99.90;;;;;;5073354;28;20901;-69
2023/01/12 05:49:34;;;;;;;7.47;2.67;;;9.20;99.90;;;;;;5073779;28;20236;-69
2023/01/12 05:52:00;;;;;;;7.13;2.57;;;9.10;99.90;;;;;;5073064;28;20188;-70
2023/01/12 05:54:25;;;;;;;7.63;2.97;;;9.10;99.90;;;;;;5072834;28;20166;-69
2023/01/12 05:56:51;;;;;;;6.83;2.43;;;9.20;99.90;;;;;;5073200;28;20161;-70
2023/01/12 05:59:17;;;;;;;7.47;1.83;;;9.30;99.90;;;;;;5073004;28;20211;-69
2023/01/12 06:01:42;;;;;;;7.83;2.30;;;9.30;99.90;;;;;;5073132;28;20180;-69
2023/01/12 06:04:08;;;;;;;6.43;2.20;;;9.20;99.90;;;;;;5054979;28;20180;-69
2023/01/12 06:06:34;;;;;;;8.97;2.63;;;9.20;99.90;;;;;;5072740;28;20219;-69
2023/01/12 06:09:00;;;;;;;5.43;2.93;;;9.30;99.90;;;;;;5072892;28;20686;-70
2023/01/12 06:14:10;;;;;;;9.20;2.67;;;9.00;99.90;;;;;;5073346;28;20382;-69
2023/01/12 06:16:38;;;;;;;10.13;2.60;;;9.00;99.90;;;;;;5079439;28;20432;-69
2023/01/12 06:19:04;;;;;;;5.73;2.53;;;8.90;99.90;;;;;;5076922;28;20622;-69
2023/01/12 06:21:31;;;;;;;6.70;2.17;;;9.00;99.90;;;;;;5077013;28;20403;-69
2023/01/12 06:23:57;;;;;;;7.70;2.33;;;9.00;99.90;;;;;;5074781;28;20452;-69
2023/01/12 06:26:23;;;;;;;4.60;1.90;;;9.00;99.90;;;;;;5077092;28;20427;-68
2023/01/12 06:28:48;;;;;;;6.63;2.00;;;9.00;99.90;;;;;;5076692;28;20264;-69
2023/01/12 06:31:17;;;;;;;6.70;2.20;;;9.10;99.90;;;;;;5077197;28;20197;-69
2023/01/12 06:33:43;;;;;;;6.10;2.70;;;9.10;99.90;;;;;;5078478;28;20161;-69
2023/01/12 06:36:09;;;;;;;9.10;2.33;;;9.10;99.90;;;;;;5076442;28;20459;-69
2023/01/12 06:38:38;;;;;;;6.17;2.27;;;9.10;99.90;;;;;;5077005;28;20172;-69
2023/01/12 06:43:53;;;;;;;5.23;1.80;;;9.00;99.90;;;;;;5077515;28;20897;-69
2023/01/12 06:46:19;;;;;;;5.77;2.40;;;9.10;99.90;;;;;;5076720;28;20435;-70
2023/01/12 06:48:44;;;;;;;7.37;2.33;;;9.00;99.90;;;;;;5077896;28;20620;-69
2023/01/12 06:51:10;;;;;;;4.20;1.77;;;9.00;99.90;;;;;;5076234;28;20288;-69
2023/01/12 06:53:35;;;;;;;9.60;2.50;;;8.90;99.90;;;;;;5075683;28;20201;-70
2023/01/12 06:56:01;;;;;;;5.27;2.07;;;9.00;99.90;;;;;;5076084;28;20193;-69
2023/01/12 06:58:27;;;;;;;6.63;2.10;;;9.00;99.90;;;;;;5076108;28;20161;-70
2023/01/12 07:00:52;;;;;;;6.70;2.37;;;9.10;99.90;;;;;;5075877;28;20248;-69
2023/01/12 07:03:19;;;;;;;9.97;2.10;;;9.10;99.90;;;;;;5075843;28;20168;-69
2023/01/12 07:05:45;;;;;;;5.57;1.67;;;9.10;99.90;;;;;;5075322;28;20194;-70
2023/01/12 07:08:14;;;;;;;7.13;2.20;;;9.20;99.90;;;;;;5075598;28;20492;-70
2023/01/12 07:10:41;;;;;;;7.90;2.27;;;9.20;99.90;;;;;;5075669;28;20451;-69
2023/01/12 07:13:06;;;;;;;10.73;2.40;;;9.20;99.90;;;;;;5076037;28;20837;-69
2023/01/12 07:15:32;;;;;;;6.07;2.10;;;9.30;99.90;;;;;;5075811;28;20481;-69
2023/01/12 07:17:58;;;;;;;4.27;1.70;;;9.30;99.90;;;;;;5076142;28;20175;-70
2023/01/12 07:20:24;;;;;;;4.83;2.17;;;9.20;99.90;;;;;;5075865;28;20162;-69
2023/01/12 07:22:49;;;;;;;12.00;2.70;;;9.20;99.90;;;;;;5074832;28;20945;-69
2023/01/12 07:25:25;;;;;;;4.37;1.77;;;9.20;99.90;;;;;;5079893;28;20186;-69
2023/01/12 07:27:52;;;;;;;6.23;1.90;;;9.30;99.90;;;;;;5059279;28;20226;-69
2023/01/12 07:30:19;;;;;;;4.37;2.03;;;9.30;99.90;;;;;;5075616;28;20856;-69
2023/01/12 07:32:44;;;;;;;8.43;2.27;;;9.30;99.90;;;;;;5069676;28;20458;-70
2023/01/12 07:35:10;;;;;;;3.83;1.83;;;9.40;99.90;;;;;;5075013;28;20869;-69
2023/01/12 07:37:35;;;;;;;5.90;2.30;;;9.50;99.90;;;;;;5074047;28;20300;-68
2023/01/12 07:40:01;;;;;;;5.90;1.60;;;9.60;99.90;;;;;;5075971;28;20479;-70
2023/01/12 07:42:26;;;;;;;5.20;1.90;;;9.60;99.90;;;;;;5075467;28;20542;-68
2023/01/12 07:44:52;;;;;;;10.23;1.67;;;9.60;99.90;;;;;;5075271;28;20191;-69
2023/01/12 07:47:18;;;;;;;4.60;1.40;;;9.60;99.90;;;;;;5076247;28;20257;-69
2023/01/12 07:49:43;;;;;;;3.73;2.00;;;9.60;99.90;;;;;;5075455;28;20204;-69
2023/01/12 07:52:13;;;;;;;4.37;1.70;;;9.60;99.90;;;;;;5074330;28;20558;-70
2023/01/12 07:54:39;;;;;;;6.90;2.00;;;9.60;99.90;;;;;;5074390;28;20213;-70
2023/01/12 07:57:09;;;;;;;4.07;2.20;;;9.70;99.90;;;;;;5075997;28;20403;-69
2023/01/12 07:59:35;;;;;;;5.97;2.03;;;9.60;99.90;;;;;;5073914;28;20416;-69
2023/01/12 08:02:00;;;;;;;5.70;1.80;;;9.50;99.90;;;;;;5075422;28;20435;-69
2023/01/12 08:04:26;;;;;;;9.33;1.80;;;9.60;99.90;;;;;;5075582;28;20162;-70
2023/01/12 08:06:52;;;;;;;5.20;1.67;;;9.60;99.90;;;;;;5075492;28;20636;-72
2023/01/12 08:09:17;;;;;;;4.73;1.87;;;9.50;99.90;;;;;;5074218;28;20293;-73
2023/01/12 08:11:43;;;;;;;6.63;2.47;;;9.60;99.90;;;;;;5074712;28;20204;-71
2023/01/12 08:14:20;;;;;;;7.47;2.47;;;9.70;99.90;;;;;;5075052;28;20566;-71
2023/01/12 08:16:48;;;;;;;7.83;1.80;;;9.80;99.90;;;;;;5074800;28;20188;-71
2023/01/12 08:19:20;;;;;;;4.10;1.20;;;9.80;99.90;;;;;;5074766;28;20404;-72
2023/01/12 08:21:53;;;;;;;5.73;2.30;;;9.90;99.90;;;;;;5074923;28;20475;-74
2023/01/12 08:24:25;;;;;;;8.50;1.83;;;10.00;99.90;;;;;;5073002;28;20423;-73
2023/01/12 08:26:53;;;;;;;3.40;1.60;;;9.90;99.90;;;;;;5074866;28;20934;-73
2023/01/12 08:29:42;;;;;;;3.43;1.50;;;10.00;99.90;;;;;;5074695;28;20492;-72
2023/01/12 08:32:10;;;;;;;4.50;2.10;;;10.00;99.90;;;;;;5075213;28;20436;-72
2023/01/12 08:34:36;;;;;;;4.00;2.00;;;9.80;99.90;;;;;;5074357;28;20400;-71
2023/01/12 08:37:06;;;;;;;4.60;1.50;;;9.90;99.90;;;;;;5073946;28;20386;-72
2023/01/12 08:39:34;;;;;;;7.40;1.80;;;9.90;99.90;;;;;;5074347;28;20491;-73
2023/01/12 08:42:00;;;;;;;2.07;1.10;;;9.80;99.90;;;;;;5074452;28;20408;-73
2023/01/12 08:44:30;;;;;;;4.93;1.83;;;9.90;99.90;;;;;;5074308;28;20492;-73
2023/01/12 08:46:56;;;;;;;5.67;1.73;;;9.90;99.90;;;;;;5074652;28;20420;-72
2023/01/12 08:49:25;;;;;;;4.10;1.50;;;9.90;99.90;;;;;;5074706;28;20404;-73
2023/01/12 08:51:50;;;;;;;10.50;2.50;;;9.90;99.90;;;;;;5074419;28;20686;-72
2023/01/12 08:54:17;;;;;;;3.63;1.40;;;9.70;99.90;;;;;;5074536;28;20406;-73
2023/01/12 08:56:43;;;;;;;2.90;1.50;;;9.90;99.90;;;;;;5056120;28;20807;-72
2023/01/12 08:59:09;;;;;;;6.93;1.50;;;9.90;99.90;;;;;;5072658;28;20430;-72
2023/01/12 09:01:35;;;;;;;4.97;1.90;;;9.80;99.90;;;;;;5073743;28;20404;-72
2023/01/12 09:04:01;;;;;;;3.57;1.57;;;9.90;99.90;;;;;;5055618;28;20178;-72
2023/01/12 09:06:29;;;;;;;8.63;2.10;;;10.00;99.90;;;;;;5073509;28;20196;-72
2023/01/12 09:09:00;;;;;;;4.53;1.80;;;9.90;99.90;;;;;;5073673;28;20415;-73
2023/01/12 09:11:28;;;;;;;10.27;1.97;;;9.80;99.90;;;;;;5074054;28;20541;-71
2023/01/12 09:13:54;;;;;;;6.97;1.77;;;9.90;99.90;;;;;;5055277;28;20450;-73
2023/01/12 09:16:20;;;;;;;4.90;2.33;;;9.90;99.90;;;;;;5074053;28;20868;-71
2023/01/12 09:18:46;;;;;;;3.97;1.73;;;10.00;99.90;;;;;;5074138;28;20444;-71
2023/01/12 09:21:14;;;;;;;5.17;1.60;;;10.00;99.90;;;;;;5073945;28;20175;-73
2023/01/12 09:23:41;;;;;;;5.20;2.03;;;10.10;99.90;;;;;;5073483;28;20197;-71
2023/01/12 09:26:09;;;;;;;4.00;1.97;;;10.20;99.90;;;;;;5074551;28;20413;-73
2023/01/12 09:28:35;;;;;;;5.03;1.87;;;10.10;99.90;;;;;;5074063;28;20406;-73
2023/01/12 09:31:03;;;;;;;4.87;1.73;;;10.20;99.90;;;;;;5071726;28;20764;-72
2023/01/12 09:33:29;;;;;;;5.33;2.60;;;10.20;99.90;;;;;;5054469;28;20912;-73
2023/01/12 09:36:02;;;;;;;5.90;1.90;;;10.10;99.90;;;;;;5074282;28;20444;-71
2023/01/12 09:38:28;;;;;;;5.90;2.20;;;10.20;99.90;;;;;;5073652;28;20392;-74
2023/01/12 09:40:59;;;;;;;6.03;1.83;;;10.30;99.90;;;;;;5071769;28;20526;-72
2023/01/12 09:49:08;;;;;;;5.77;1.70;;;10.20;99.90;;;;;;5073767;28;20770;-71
2023/01/12 09:51:38;;;;;;;3.70;1.50;;;10.30;99.90;;;;;;5076221;28;20452;-69
2023/01/12 09:54:05;;;;;;;5.33;1.63;;;10.30;99.90;;;;;;5077564;28;20568;-70
2023/01/12 09:56:37;;;;;;;4.53;1.97;;;10.40;99.90;;;;;;5077142;28;20417;-70
2023/01/12 09:59:24;;;;;;;4.00;1.93;;;10.40;99.90;;;;;;5077810;28;20390;-70
2023/01/12 10:01:51;;;;;;;3.50;1.63;;;10.60;99.90;;;;;;5077319;28;20400;-69
2023/01/12 10:04:17;;;;;;;8.27;2.37;;;10.70;99.90;;;;;;5077435;28;20816;-69
2023/01/12 10:06:43;;;;;;;5.77;1.70;;;10.70;99.90;;;;;;5059489;28;20436;-72
2023/01/12 10:09:17;;;;;;;7.77;2.07;;;10.70;99.90;;;;;;5077251;28;20174;-70
2023/01/12 10:12:24;;;;;;;7.23;1.57;;;10.80;99.90;;;;;;5059558;28;20191;-72
2023/01/12 10:15:26;;;;;;;7.20;1.60;;;10.80;99.90;;;;;;5058958;28;20424;-72
2023/01/12 10:18:16;;;;;;;2.50;1.30;;;10.80;99.90;;;;;;5077079;28;20381;-72
2023/01/12 10:20:43;;;;;;;5.77;2.20;;;10.80;99.90;;;;;;5075320;28;20411;-75
2023/01/12 10:23:08;;;;;;;3.83;1.67;;;10.80;99.90;;;;;;5076381;28;20407;-71
2023/01/12 10:25:39;;;;;;;2.43;1.30;;;10.80;99.90;;;;;;5075852;28;20420;-73
2023/01/12 10:28:06;;;;;;;6.63;1.90;;;10.80;99.90;;;;;;5076612;28;20162;-70
2023/01/12 10:30:37;;;;;;;3.47;1.70;;;10.90;99.90;;;;;;5076244;28;20403;-71
2023/01/12 10:33:09;;;;;;;2.43;1.10;;;10.80;99.90;;;;;;5076425;28;20500;-70
2023/01/12 10:35:35;;;;;;;6.00;1.93;;;11.00;99.90;;;;;;5095931;22;20495;-68
2023/01/12 10:38:18;;;;;;;3.40;1.30;;;11.00;99.90;;;;;;5075584;28;20879;-68
2023/01/12 10:41:03;;;;;;;3.63;1.30;;;11.20;99.90;;;;;;5075152;28;20304;-68
2023/01/12 10:43:32;;;;;;;7.13;1.33;;;11.30;99.90;;;;;;5073704;28;20407;-68
2023/01/12 10:46:18;;;;;;;4.37;1.77;;;11.20;99.90;;;;;;5075332;28;20412;-70
2023/01/12 10:48:49;;;;;;;3.00;1.57;;;11.20;99.90;;;;;;5073716;28;20455;-70
2023/01/12 10:51:31;;;;;;;5.97;1.57;;;11.20;99.90;;;;;;5075371;28;20387;-69
2023/01/12 10:54:18;;;;;;;4.13;1.50;;;11.30;99.90;;;;;;5074969;28;20412;-69
2023/01/12 10:56:55;;;;;;;4.87;1.10;;;11.20;99.90;;;;;;5074864;28;20424;-68
2023/01/12 10:59:25;;;;;;;5.30;1.10;;;11.10;99.90;;;;;;5073236;28;20420;-69
2023/01/12 11:01:51;;;;;;;3.07;1.10;;;11.00;99.90;;;;;;5074855;28;20990;-70
2023/01/12 11:04:26;;;;;;;3.53;1.63;;;11.20;99.90;;;;;;5074465;28;20404;-71
2023/01/12 11:07:07;;;;;;;3.10;1.13;;;11.30;99.90;;;;;;5075032;28;20208;-71
2023/01/12 11:09:33;;;;;;;3.90;1.13;;;11.30;99.90;;;;;;5074945;28;20384;-70
2023/01/12 11:12:01;;;;;;;2.30;1.10;;;11.20;99.90;;;;;;5056234;28;20452;-68
2023/01/12 11:14:36;;;;;;;6.50;1.30;;;11.10;99.90;;;;;;5075005;28;20167;-69
2023/01/12 11:17:28;;;;;;;1.60;1.00;;;11.10;99.90;;;;;;5079659;28;20466;-70
2023/01/12 11:19:55;;;;;;;4.30;0.90;;;11.20;99.90;;;;;;5064110;28;20420;-69
2023/01/12 11:22:30;;;;;;;3.13;1.00;;;11.40;99.90;;;;;;5057981;28;20555;-71
2023/01/12 11:25:34;;;;;;;2.00;1.00;;;11.40;99.90;;;;;;5055772;28;20918;-70
2023/01/12 11:28:11;;;;;;;1.87;0.80;;;11.30;99.90;;;;;;4993216;28;20427;-71
2023/01/12 11:30:43;;;;;;;1.73;0.87;;;11.20;99.90;;;;;;5065385;28;20414;-70
2023/01/12 11:33:35;;;;;;;2.20;1.13;;;11.30;99.90;;;;;;5067083;28;20446;-71
2023/01/12 11:36:04;;;;;;;1.50;0.83;;;11.20;99.90;;;;;;5036528;28;20457;-71
2023/01/12 11:38:35;;;;;;;3.30;1.10;;;11.20;99.90;;;;;;5054749;28;20411;-71
2023/01/12 11:41:06;;;;;;;2.77;0.77;;;11.20;99.90;;;;;;5051017;28;20799;-72
2023/01/12 11:43:49;;;;;;;1.60;1.00;;;11.20;99.90;;;;;;5056384;28;20377;-70
2023/01/12 11:46:42;;;;;;;3.50;0.90;;;11.30;99.90;;;;;;5055440;28;20944;-69
2023/01/12 11:49:19;;;;;;;1.63;0.80;;;11.30;99.90;;;;;;5055989;28;20478;-70
2023/01/12 11:51:49;;;;;;;1.50;0.77;;;11.30;99.90;;;;;;5055756;28;20455;-70
2023/01/12 11:54:17;;;;;;;1.30;0.60;;;11.40;99.90;;;;;;5055661;28;20420;-70
2023/01/12 11:57:03;;;;;;;1.93;0.83;;;11.60;99.90;;;;;;5054887;28;20898;-70
2023/01/12 11:59:53;;;;;;;2.87;0.90;;;11.60;99.90;;;;;;5037209;28;20492;-70
2023/01/12 12:02:31;;;;;;;2.03;0.80;;;11.50;99.90;;;;;;5053840;28;20454;-69
2023/01/12 12:05:23;;;;;;;1.37;0.90;;;11.50;99.90;;;;;;5057193;28;20400;-71
2023/01/12 12:08:14;;;;;;;2.17;1.03;;;11.60;99.90;;;;;;5036359;28;20422;-71
2023/01/12 12:11:04;;;;;;;2.40;1.00;;;11.60;99.90;;;;;;5054145;28;20760;-70
2023/01/12 12:13:32;;;;;;;1.60;0.97;;;11.60;99.90;;;;;;5052916;28;20484;-69
2023/01/12 12:16:12;;;;;;;7.27;1.30;;;11.30;99.90;;;;;;5053129;28;20446;-70
2023/01/12 12:19:06;;;;;;;2.40;0.93;;;11.50;99.90;;;;;;5053348;28;20413;-70
2023/01/12 12:21:52;;;;;;;3.90;1.33;;;11.70;99.90;;;;;;5052981;28;20424;-70
2023/01/12 12:24:42;;;;;;;1.40;1.00;;;11.90;99.90;;;;;;5063222;28;20423;-70
2023/01/12 12:27:34;;;;;;;1.53;0.80;;;11.90;99.90;;;;;;5073095;28;20478;-70
2023/01/12 12:30:19;;;;;;;3.50;1.33;;;11.80;99.90;;;;;;5055650;28;20401;-72
2023/01/12 12:33:07;;;;;;;1.33;1.03;;;11.60;99.90;;;;;;5073826;28;20495;-71
2023/01/12 12:35:51;;;;;;;3.20;1.00;;;11.60;99.90;;;;;;5034498;28;20444;-71
2023/01/12 12:38:46;;;;;;;1.90;0.93;;;11.50;99.90;;;;;;5073867;28;20417;-72
2023/01/12 12:48:02;;;;;;;1.37;0.70;;;11.30;99.90;;;;;;5073833;28;20404;-71
2023/01/12 12:50:53;;;;;;;3.43;0.90;;;11.50;99.90;;;;;;5072306;28;20499;-72
2023/01/12 12:53:24;;;;;;;1.63;0.97;;;11.50;99.90;;;;;;5069623;28;20495;-71
2023/01/12 12:55:51;;;;;;;2.33;1.00;;;11.60;99.90;;;;;;5052510;28;20423;-71
2023/01/12 12:58:20;;;;;;;2.20;1.20;;;11.60;99.90;;;;;;5053154;28;20402;-71
2023/01/12 13:00:46;;;;;;;1.90;1.13;;;11.60;99.90;;;;;;5053076;28;20417;-70
2023/01/12 13:03:40;;;;;;;1.80;1.00;;;11.70;99.90;;;;;;5052751;28;20408;-71
2023/01/12 13:06:30;;;;;;;2.43;0.70;;;11.70;99.90;;;;;;5052893;28;20934;-70
2023/01/12 13:08:58;;;;;;;2.67;1.20;;;11.50;99.90;;;;;;5052183;28;20504;-71
2023/01/12 13:11:54;;;;;;;2.70;0.80;;;11.50;99.90;;;;;;5052676;28;20468;-71
2023/01/12 13:14:30;;;;;;;2.13;0.80;;;11.60;99.90;;;;;;5052696;28;20481;-71
2023/01/12 13:17:00;;;;;;;1.53;1.00;;;11.60;99.90;;;;;;5053202;28;20424;-71
2023/01/12 13:19:38;;;;;;;1.37;1.07;;;11.50;99.90;;;;;;5052870;28;20402;-71
2023/01/12 13:22:31;;;;;;;1.10;0.77;;;11.70;99.90;;;;;;5053245;28;20415;-71
2023/01/12 13:25:28;;;;;;;2.87;0.90;;;11.80;99.90;;;;;;5034259;28;20424;-70
2023/01/12 13:28:00;;;;;;;3.47;0.80;;;11.70;99.90;;;;;;5031629;28;20432;-71
2023/01/12 13:30:25;;;;;;;2.30;0.90;;;11.60;99.90;;;;;;5072559;28;20409;-70
2023/01/12 13:33:00;;;;;;;2.53;0.90;;;11.70;99.90;;;;;;5072502;28;20451;-72
2023/01/12 13:35:34;;;;;;;3.10;1.40;;;11.90;99.90;;;;;;5068830;28;20208;-71
2023/01/12 13:38:42;;;;;;;3.60;0.90;;;11.90;99.90;;;;;;5056600;28;20400;-73
2023/01/12 13:43:13;;;;;;;2.63;0.87;;;11.50;99.90;;;;;;5032364;28;20405;-72
2023/01/12 13:44:03;;;;;;;2.23;0.90;;;11.50;99.90;;;;;;5035500;28;20452;-72
2023/01/12 13:46:38;;;;;;;3.57;0.90;;;11.70;99.90;;;;;;5035377;28;20416;-71
2023/01/12 13:49:23;;;;;;;1.57;0.70;;;11.60;99.90;;;;;;5033512;28;20408;-71
2023/01/12 13:51:56;;;;;;;2.23;1.10;;;11.60;99.90;;;;;;5032990;28;20511;-71